createdAt,value
2022-11-06T00:01:13.191Z,100430.91
2022-11-06T00:03:40.824Z,100427.44
2022-11-06T00:06:09.515Z,100416.31
2022-11-06T00:08:39.438Z,100410.22
2022-11-06T00:11:15.295Z,100406.66
2022-11-06T00:13:43.510Z,100429.16
2022-11-06T00:16:13.274Z,100426.88
2022-11-06T00:18:41.025Z,100420.94
2022-11-06T00:21:10.516Z,100446.88
2022-11-06T00:23:39.003Z,100434.56
2022-11-06T00:26:11.143Z,100423.47
2022-11-06T00:28:39.170Z,100424.97
2022-11-06T00:31:12.404Z,100421.22
2022-11-06T00:33:39.517Z,100436.09
2022-11-06T00:36:09.259Z,100427.00
2022-11-06T00:38:36.387Z,100419.50
2022-11-06T00:41:08.841Z,100419.28
2022-11-06T00:43:36.376Z,100437.97
2022-11-06T00:46:03.553Z,100440.63
2022-11-06T00:48:30.425Z,100456.59
2022-11-06T00:51:03.505Z,100446.88
2022-11-06T00:53:30.612Z,100431.78
2022-11-06T00:56:08.454Z,100415.00
2022-11-06T00:58:35.758Z,100451.47
2022-11-06T01:01:22.653Z,100456.03
2022-11-06T01:03:55.583Z,100430.78
2022-11-06T01:06:25.178Z,100445.94
2022-11-06T01:08:52.697Z,100450.63
2022-11-06T01:12:11.129Z,100445.63
2022-11-06T01:14:28.366Z,100440.03
2022-11-06T01:16:55.184Z,100454.66
2022-11-06T01:19:23.177Z,100436.59
2022-11-06T01:21:52.545Z,100440.13
2022-11-06T01:24:25.708Z,100436.34
2022-11-06T01:27:24.341Z,100438.44
2022-11-06T01:29:40.195Z,100451.47
2022-11-06T01:32:07.310Z,100435.31
2022-11-06T01:34:34.311Z,100449.38
2022-11-06T01:37:01.363Z,100449.88
2022-11-06T01:39:28.531Z,100450.50
2022-11-06T01:41:55.755Z,100440.41
2022-11-06T01:44:31.972Z,100457.81
2022-11-06T01:47:00.415Z,100464.63
2022-11-06T01:49:32.777Z,100447.22
2022-11-06T01:52:05.092Z,100428.19
2022-11-06T01:54:35.651Z,100462.00
2022-11-06T01:57:04.558Z,100482.09
2022-11-06T01:59:35.207Z,100465.88
2022-11-06T02:02:02.385Z,100465.63
2022-11-06T02:04:34.564Z,100475.72
2022-11-06T02:07:02.480Z,100454.50
2022-11-06T02:09:31.356Z,100473.78
2022-11-06T02:12:05.743Z,100464.31
2022-11-06T02:15:08.076Z,100467.34
2022-11-06T02:18:01.140Z,100457.38
2022-11-06T02:21:09.355Z,100456.03
2022-11-06T02:24:14.455Z,100471.81
2022-11-06T02:27:00.263Z,100484.44
2022-11-06T02:29:55.648Z,100474.66
2022-11-06T02:32:40.570Z,100478.38
2022-11-06T02:35:43.638Z,100467.66
2022-11-06T02:38:20.596Z,100488.06
2022-11-06T02:40:53.978Z,100464.78
2022-11-06T02:43:26.020Z,100485.03
2022-11-06T02:46:05.383Z,100488.00
2022-11-06T02:48:38.789Z,100484.94
2022-11-06T02:51:09.831Z,100478.41
2022-11-06T02:53:40.693Z,100486.63
2022-11-06T02:56:14.313Z,100480.81
2022-11-06T02:58:57.987Z,100464.69
2022-11-06T03:01:41.902Z,100492.50
2022-11-06T03:04:35.395Z,100489.34
2022-11-06T03:07:12.211Z,100469.44
2022-11-06T03:09:39.308Z,100477.88
2022-11-06T03:12:32.948Z,100478.00
2022-11-06T03:15:39.163Z,100495.44
2022-11-06T03:18:29.501Z,100500.50
2022-11-06T03:21:11.070Z,100503.28
2022-11-06T03:23:59.076Z,100489.59
2022-11-06T03:26:37.432Z,100477.63
2022-11-06T03:29:14.720Z,100475.78
2022-11-06T03:31:54.664Z,100500.13
2022-11-06T03:34:49.488Z,100474.28
2022-11-06T03:37:26.696Z,100482.13
2022-11-06T03:39:59.094Z,100489.19
2022-11-06T03:42:29.781Z,100469.34
2022-11-06T03:45:19.987Z,100472.66
2022-11-06T03:47:54.860Z,100469.34
2022-11-06T03:50:39.927Z,100506.38
2022-11-06T03:53:15.444Z,100476.59
2022-11-06T03:55:48.453Z,100479.50
2022-11-06T03:58:21.741Z,100454.53
2022-11-06T04:00:50.953Z,100461.28
2022-11-06T04:03:27.081Z,100448.34
2022-11-06T04:06:12.603Z,100478.53
2022-11-06T04:08:40.543Z,100474.88
2022-11-06T04:11:10.711Z,100486.72
2022-11-06T04:13:41.321Z,100493.50
2022-11-06T04:16:09.838Z,100485.78
2022-11-06T04:18:37.364Z,100484.38
2022-11-06T04:21:25.224Z,100483.63
2022-11-06T04:24:19.636Z,100478.53
2022-11-06T04:27:21.350Z,100476.22
2022-11-06T04:30:04.271Z,100481.25
2022-11-06T04:33:05.429Z,100477.13
2022-11-06T04:36:03.031Z,100488.31
2022-11-06T04:38:55.131Z,100488.31
2022-11-06T04:41:38.706Z,100501.56
2022-11-06T04:44:27.023Z,100500.81
2022-11-06T04:46:59.225Z,100522.03
2022-11-06T04:49:31.217Z,100512.03
2022-11-06T04:51:59.375Z,100520.94
2022-11-06T04:54:26.719Z,100522.72
2022-11-06T04:56:58.794Z,100538.94
2022-11-06T04:59:25.677Z,100506.06
2022-11-06T05:01:53.606Z,100536.06
2022-11-06T05:04:20.641Z,100547.25
2022-11-06T05:06:47.453Z,100537.97
2022-11-06T05:09:14.349Z,100541.19
2022-11-06T05:11:41.190Z,100532.41
2022-11-06T05:14:09.534Z,100531.28
2022-11-06T05:16:36.511Z,100530.19
2022-11-06T05:19:04.097Z,100544.63
2022-11-06T05:21:31.146Z,100557.97
2022-11-06T05:23:58.072Z,100552.88
2022-11-06T05:26:25.113Z,100547.38
2022-11-06T05:28:52.080Z,100543.00
2022-11-06T05:31:18.936Z,100554.41
2022-11-06T05:33:45.937Z,100542.53
2022-11-06T05:36:12.797Z,100548.13
2022-11-06T05:38:39.644Z,100549.06
2022-11-06T05:41:06.578Z,100577.38
2022-11-06T05:43:33.682Z,100578.78
2022-11-06T05:46:00.744Z,100566.38
2022-11-06T05:48:29.074Z,100569.31
2022-11-06T05:51:07.414Z,100572.91
2022-11-06T05:53:37.027Z,100556.44
2022-11-06T05:56:05.300Z,100559.94
2022-11-06T05:58:33.308Z,100547.66
2022-11-06T06:01:00.718Z,100554.69
2022-11-06T06:03:28.494Z,100578.31
2022-11-06T06:05:55.776Z,100560.50
2022-11-06T06:08:25.835Z,100554.25
2022-11-06T06:10:53.008Z,100565.31
2022-11-06T06:13:20.160Z,100569.84
2022-11-06T06:15:46.983Z,100585.25
2022-11-06T06:18:14.298Z,100569.00
2022-11-06T06:20:41.438Z,100580.63
2022-11-06T06:23:09.822Z,100562.06
2022-11-06T06:25:36.729Z,100578.91
2022-11-06T06:28:03.617Z,100579.78
2022-11-06T06:30:30.493Z,100558.97
2022-11-06T06:32:57.475Z,100580.69
2022-11-06T06:35:24.414Z,100575.97
2022-11-06T06:37:53.521Z,100588.09
2022-11-06T06:40:23.661Z,100583.63
2022-11-06T06:42:51.061Z,100579.63
2022-11-06T06:45:17.883Z,100572.28
2022-11-06T06:47:44.743Z,100546.75
2022-11-06T06:50:14.795Z,100562.03
2022-11-06T06:52:41.900Z,100569.25
2022-11-06T06:55:09.358Z,100590.94
2022-11-06T06:57:36.668Z,100561.84
2022-11-06T07:00:04.689Z,100581.50
2022-11-06T07:02:31.853Z,100554.56
2022-11-06T07:04:58.786Z,100586.38
2022-11-06T07:07:26.027Z,100578.56
2022-11-06T07:09:53.191Z,100569.69
2022-11-06T07:12:19.990Z,100579.16
2022-11-06T07:14:46.844Z,100572.13
2022-11-06T07:17:13.688Z,100582.41
2022-11-06T07:19:40.569Z,100576.63
2022-11-06T07:22:08.085Z,100587.50
2022-11-06T07:24:34.884Z,100579.84
2022-11-06T07:27:01.726Z,100597.06
2022-11-06T07:29:29.208Z,100601.78
2022-11-06T07:31:56.003Z,100571.00
2022-11-06T07:34:22.912Z,100580.63
2022-11-06T07:36:49.831Z,100603.19
2022-11-06T07:39:16.738Z,100599.31
2022-11-06T07:41:43.626Z,100602.38
2022-11-06T07:44:11.218Z,100601.03
2022-11-06T07:46:38.000Z,100601.66
2022-11-06T07:49:04.794Z,100578.72
2022-11-06T07:51:32.223Z,100594.91
2022-11-06T07:53:59.411Z,100599.66
2022-11-06T07:56:26.209Z,100603.50
2022-11-06T07:58:55.856Z,100587.97
2022-11-06T08:01:23.863Z,100593.22
2022-11-06T08:03:50.967Z,100600.69
2022-11-06T08:06:17.846Z,100596.75
2022-11-06T08:08:45.025Z,100608.34
2022-11-06T08:11:12.743Z,100615.44
2022-11-06T08:13:40.274Z,100608.47
2022-11-06T08:16:10.192Z,100613.44
2022-11-06T08:18:38.076Z,100562.69
2022-11-06T08:21:07.071Z,100625.56
2022-11-06T08:23:35.787Z,100599.28
2022-11-06T08:26:05.558Z,100603.38
2022-11-06T08:28:32.652Z,100610.72
2022-11-06T08:31:03.778Z,100602.66
2022-11-06T08:33:30.909Z,100604.63
2022-11-06T08:36:05.717Z,100597.34
2022-11-06T08:38:32.971Z,100590.41
2022-11-06T08:41:11.892Z,100582.50
2022-11-06T08:43:39.781Z,100588.56
2022-11-06T08:46:08.447Z,100586.69
2022-11-06T08:48:35.467Z,100599.84
2022-11-06T08:51:02.569Z,100571.31
2022-11-06T08:53:29.512Z,100593.31
2022-11-06T08:55:56.484Z,100584.66
2022-11-06T08:58:26.411Z,100600.53
2022-11-06T09:00:53.454Z,100599.19
2022-11-06T09:03:20.424Z,100594.41
2022-11-06T09:05:47.713Z,100590.88
2022-11-06T09:08:15.213Z,100610.28
2022-11-06T09:10:47.112Z,100593.31
2022-11-06T09:13:15.181Z,100589.25
2022-11-06T09:15:44.009Z,100603.13
2022-11-06T09:18:12.013Z,100595.91
2022-11-06T09:20:38.952Z,100608.25
2022-11-06T09:23:08.192Z,100602.63
2022-11-06T09:25:35.411Z,100600.19
2022-11-06T09:28:02.460Z,100572.19
2022-11-06T09:30:31.290Z,100588.34
2022-11-06T09:33:01.553Z,100583.75
2022-11-06T09:35:31.207Z,100565.47
2022-11-06T09:38:05.923Z,100587.31
2022-11-06T09:40:49.782Z,100599.03
2022-11-06T09:44:08.960Z,100606.69
2022-11-06T09:46:47.508Z,100587.06
2022-11-06T09:49:17.536Z,100594.97
2022-11-06T09:52:01.888Z,100601.84
2022-11-06T09:54:40.229Z,100574.88
2022-11-06T09:57:22.443Z,100588.06
2022-11-06T09:59:51.315Z,100576.16
2022-11-06T10:02:49.540Z,100588.66
2022-11-06T10:05:29.133Z,100580.03
2022-11-06T10:08:00.102Z,100574.97
2022-11-06T10:11:08.710Z,100601.13
2022-11-06T10:14:03.122Z,100588.72
2022-11-06T10:16:48.442Z,100589.16
2022-11-06T10:19:30.550Z,100589.28
2022-11-06T10:22:16.083Z,100574.91
2022-11-06T10:25:01.359Z,100562.75
2022-11-06T10:27:43.019Z,100563.16
2022-11-06T10:30:15.823Z,100607.25
2022-11-06T10:33:00.953Z,100581.69
2022-11-06T10:35:40.292Z,100576.03
2022-11-06T10:38:44.587Z,100551.97
2022-11-06T10:41:20.120Z,100558.69
2022-11-06T10:43:57.230Z,100561.66
2022-11-06T10:46:34.071Z,100573.56
2022-11-06T10:49:05.084Z,100571.72
2022-11-06T10:51:43.712Z,100575.81
2022-11-06T10:54:38.638Z,100555.75
2022-11-06T10:57:16.625Z,100564.41
2022-11-06T10:59:43.780Z,100582.28
2022-11-06T11:02:31.856Z,100590.47
2022-11-06T11:04:59.266Z,100582.38
2022-11-06T11:07:32.486Z,100571.09
2022-11-06T11:09:59.581Z,100566.81
2022-11-06T11:12:31.490Z,100576.03
2022-11-06T11:15:32.823Z,100565.81
2022-11-06T11:18:12.081Z,100576.25
2022-11-06T11:20:42.036Z,100566.91
2022-11-06T11:23:25.246Z,100580.63
2022-11-06T11:25:55.083Z,100564.25
2022-11-06T11:28:35.894Z,100582.53
2022-11-06T11:31:06.097Z,100555.09
2022-11-06T11:33:33.995Z,100570.75
2022-11-06T11:36:02.825Z,100547.97
2022-11-06T11:38:30.258Z,100581.59
2022-11-06T11:41:24.048Z,100553.31
2022-11-06T11:44:18.208Z,100577.69
2022-11-06T11:46:53.641Z,100580.81
2022-11-06T11:49:34.550Z,100567.38
2022-11-06T11:52:05.079Z,100562.03
2022-11-06T11:54:35.181Z,100578.53
2022-11-06T11:57:08.302Z,100573.91
2022-11-06T11:59:48.377Z,100557.91
2022-11-06T12:02:31.644Z,100572.59
2022-11-06T12:05:02.789Z,100577.78
2022-11-06T12:07:52.273Z,100593.19
2022-11-06T12:10:35.972Z,100593.19
2022-11-06T12:13:24.281Z,100596.44
2022-11-06T12:15:57.670Z,100579.97
2022-11-06T12:18:43.960Z,100586.03
2022-11-06T12:21:46.142Z,100566.03
2022-11-06T12:24:20.724Z,100570.16
2022-11-06T12:26:59.432Z,100584.91
2022-11-06T12:29:34.749Z,100593.22
2022-11-06T12:32:20.209Z,100598.38
2022-11-06T12:34:49.892Z,100621.31
2022-11-06T12:38:01.498Z,100572.81
2022-11-06T12:40:51.272Z,100585.91
2022-11-06T12:43:25.271Z,100579.59
2022-11-06T12:46:22.135Z,100592.44
2022-11-06T12:49:17.605Z,100602.94
2022-11-06T12:52:06.082Z,100610.66
2022-11-06T12:54:39.202Z,100592.38
2022-11-06T12:57:34.627Z,100621.38
2022-11-06T13:00:08.249Z,100584.94
2022-11-06T13:03:12.690Z,100625.94
2022-11-06T13:06:01.099Z,100587.41
2022-11-06T13:08:36.052Z,100578.56
2022-11-06T13:11:33.540Z,100599.81
2022-11-06T13:14:14.703Z,100575.06
2022-11-06T13:16:50.693Z,100594.09
2022-11-06T13:19:39.488Z,100588.13
2022-11-06T13:22:15.497Z,100571.75
2022-11-06T13:25:07.309Z,100590.78
2022-11-06T13:27:51.650Z,100567.28
2022-11-06T13:30:21.423Z,100593.00
2022-11-06T13:33:12.642Z,100568.59
2022-11-06T13:35:42.662Z,100583.72
2022-11-06T13:38:17.163Z,100588.84
2022-11-06T13:40:48.664Z,100590.53
2022-11-06T13:43:22.870Z,100581.00
2022-11-06T13:46:17.733Z,100589.09
2022-11-06T13:49:06.916Z,100590.38
2022-11-06T13:51:43.360Z,100564.94
2022-11-06T13:54:41.274Z,100586.69
2022-11-06T13:57:21.797Z,100594.50
2022-11-06T13:59:57.357Z,100613.56
2022-11-06T14:02:54.284Z,100607.72
2022-11-06T14:05:53.669Z,100608.59
2022-11-06T14:08:50.587Z,100618.38
2022-11-06T14:11:20.646Z,100610.28
2022-11-06T14:14:12.384Z,100636.34
2022-11-06T14:16:43.239Z,100626.50
2022-11-06T14:19:23.604Z,100618.19
2022-11-06T14:22:14.718Z,100617.00
2022-11-06T14:24:43.648Z,100606.25
2022-11-06T14:27:12.029Z,100605.63
2022-11-06T14:29:39.193Z,100630.38
2022-11-06T14:32:21.049Z,100619.28
2022-11-06T14:34:48.693Z,100616.09
2022-11-06T14:37:18.308Z,100603.53
2022-11-06T14:39:54.453Z,100615.69
2022-11-06T14:42:30.863Z,100616.19
2022-11-06T14:45:15.668Z,100621.06
2022-11-06T14:47:54.688Z,100613.84
2022-11-06T14:50:40.955Z,100609.53
2022-11-06T14:53:24.055Z,100594.78
2022-11-06T14:56:11.504Z,100610.56
2022-11-06T14:58:47.771Z,100615.84
2022-11-06T15:01:16.985Z,100608.06
2022-11-06T15:03:51.138Z,100611.25
2022-11-06T15:06:18.177Z,100596.50
2022-11-06T15:08:48.258Z,100632.53
2022-11-06T15:11:30.588Z,100607.69
2022-11-06T15:14:06.175Z,100605.56
2022-11-06T15:16:46.942Z,100612.94
2022-11-06T15:19:22.574Z,100613.22
2022-11-06T15:21:53.415Z,100607.69
2022-11-06T15:24:35.937Z,100612.47
2022-11-06T15:27:12.714Z,100605.28
2022-11-06T15:29:42.746Z,100603.63
2022-11-06T15:32:15.797Z,100607.91
2022-11-06T15:34:50.750Z,100624.19
2022-11-06T15:37:23.399Z,100598.59
2022-11-06T15:39:59.203Z,100626.94
2022-11-06T15:42:31.429Z,100608.06
2022-11-06T15:45:09.064Z,100608.84
2022-11-06T15:47:36.327Z,100597.03
2022-11-06T15:50:23.966Z,100602.13
2022-11-06T15:52:51.508Z,100606.41
2022-11-06T15:55:33.554Z,100611.16
2022-11-06T15:58:33.198Z,100601.47
2022-11-06T16:01:02.050Z,100593.97
2022-11-06T16:03:32.585Z,100594.59
2022-11-06T16:06:04.296Z,100592.91
2022-11-06T16:08:33.002Z,100593.06
2022-11-06T16:11:01.872Z,100577.91
2022-11-06T16:13:29.765Z,100571.00
2022-11-06T16:16:01.692Z,100568.56
2022-11-06T16:18:47.391Z,100588.78
2022-11-06T16:21:22.790Z,100591.53
2022-11-06T16:23:55.108Z,100584.16
2022-11-06T16:26:33.623Z,100584.31
2022-11-06T16:29:00.940Z,100610.06
2022-11-06T16:31:30.706Z,100549.94
2022-11-06T16:34:03.701Z,100586.91
2022-11-06T16:36:49.463Z,100565.94
2022-11-06T16:39:40.202Z,100566.38
2022-11-06T16:42:12.504Z,100571.28
2022-11-06T16:44:39.400Z,100576.59
2022-11-06T16:47:20.931Z,100588.75
2022-11-06T16:49:53.885Z,100558.41
2022-11-06T16:52:33.531Z,100566.81
2022-11-06T16:55:16.612Z,100550.91
2022-11-06T16:57:46.779Z,100568.06
2022-11-06T17:00:20.370Z,100559.94
2022-11-06T17:02:50.494Z,100576.66
2022-11-06T17:05:22.979Z,100565.63
2022-11-06T17:08:22.600Z,100573.94
2022-11-06T17:11:12.861Z,100578.97
2022-11-06T17:13:46.262Z,100575.75
2022-11-06T17:16:19.931Z,100579.09
2022-11-06T17:18:47.560Z,100565.03
2022-11-06T17:21:15.634Z,100592.47
2022-11-06T17:23:43.582Z,100578.06
2022-11-06T17:26:30.517Z,100576.22
2022-11-06T17:28:59.059Z,100589.09
2022-11-06T17:31:27.132Z,100597.06
2022-11-06T17:33:54.480Z,100594.16
2022-11-06T17:36:25.789Z,100574.38
2022-11-06T17:38:56.919Z,100575.91
2022-11-06T17:41:25.248Z,100571.78
2022-11-06T17:43:52.354Z,100566.09
2022-11-06T17:46:19.370Z,100555.53
2022-11-06T17:48:46.445Z,100575.91
2022-11-06T17:51:13.862Z,100572.38
2022-11-06T17:53:40.690Z,100549.84
2022-11-06T17:56:07.999Z,100550.75
2022-11-06T17:58:35.973Z,100541.56
2022-11-06T18:01:10.777Z,100543.72
2022-11-06T18:03:43.956Z,100531.47
2022-11-06T18:06:14.149Z,100543.25
2022-11-06T18:08:41.577Z,100536.69
2022-11-06T18:11:10.167Z,100544.19
2022-11-06T18:13:37.830Z,100547.88
2022-11-06T18:16:16.479Z,100560.72
2022-11-06T18:18:43.508Z,100549.84
2022-11-06T18:21:10.683Z,100536.06
2022-11-06T18:23:38.191Z,100544.50
2022-11-06T18:26:05.698Z,100545.88
2022-11-06T18:28:32.872Z,100533.78
2022-11-06T18:31:00.519Z,100566.25
2022-11-06T18:33:29.024Z,100551.53
2022-11-06T18:36:05.201Z,100550.31
2022-11-06T18:38:32.963Z,100552.63
2022-11-06T18:41:07.211Z,100557.50
2022-11-06T18:43:34.434Z,100549.09
2022-11-06T18:46:09.644Z,100535.75
2022-11-06T18:48:37.317Z,100561.34
2022-11-06T18:51:32.709Z,100563.03
2022-11-06T18:54:05.489Z,100540.50
2022-11-06T18:56:33.412Z,100536.66
2022-11-06T18:59:00.292Z,100550.75
2022-11-06T19:01:28.270Z,100544.75
2022-11-06T19:03:56.580Z,100547.22
2022-11-06T19:06:23.536Z,100573.91
2022-11-06T19:08:50.437Z,100543.09
2022-11-06T19:11:18.710Z,100566.09
2022-11-06T19:13:48.197Z,100552.88
2022-11-06T19:16:17.741Z,100541.09
2022-11-06T19:18:46.977Z,100556.09
2022-11-06T19:21:14.469Z,100570.78
2022-11-06T19:23:46.711Z,100566.84
2022-11-06T19:26:30.419Z,100560.78
2022-11-06T19:29:01.571Z,100571.84
2022-11-06T19:31:29.937Z,100566.03
2022-11-06T19:33:58.639Z,100545.66
2022-11-06T19:36:26.069Z,100557.75
2022-11-06T19:38:53.855Z,100562.59
2022-11-06T19:41:21.079Z,100563.13
2022-11-06T19:43:48.091Z,100567.09
2022-11-06T19:46:18.275Z,100573.16
2022-11-06T19:48:49.691Z,100577.00
2022-11-06T19:51:16.628Z,100582.66
2022-11-06T19:53:43.693Z,100580.06
2022-11-06T19:56:12.653Z,100587.72
2022-11-06T19:58:39.695Z,100580.56
2022-11-06T20:01:07.950Z,100573.66
2022-11-06T20:03:35.687Z,100587.88
2022-11-06T20:06:07.556Z,100587.41
2022-11-06T20:08:36.300Z,100573.81
2022-11-06T20:11:11.357Z,100562.03
2022-11-06T20:13:39.213Z,100571.78
2022-11-06T20:16:08.970Z,100559.66
2022-11-06T20:18:36.631Z,100573.31
2022-11-06T20:21:10.960Z,100559.00
2022-11-06T20:23:38.586Z,100549.03
2022-11-06T20:26:07.069Z,100587.00
2022-11-06T20:28:35.173Z,100573.41
2022-11-06T20:31:10.282Z,100575.75
2022-11-06T20:33:38.260Z,100583.81
2022-11-06T20:36:16.609Z,100570.81
2022-11-06T20:38:43.561Z,100563.19
2022-11-06T20:41:11.109Z,100577.63
2022-11-06T20:43:38.228Z,100573.91
2022-11-06T20:46:05.861Z,100575.75
2022-11-06T20:48:33.435Z,100577.31
2022-11-06T20:51:06.469Z,100560.72
2022-11-06T20:53:34.205Z,100577.84
2022-11-06T20:56:03.846Z,100578.03
2022-11-06T20:58:31.152Z,100563.75
2022-11-06T21:01:03.309Z,100568.84
2022-11-06T21:03:30.546Z,100584.25
2022-11-06T21:05:57.954Z,100549.13
2022-11-06T21:08:25.627Z,100571.03
2022-11-06T21:11:03.431Z,100549.31
2022-11-06T21:13:34.478Z,100563.50
2022-11-06T21:16:04.853Z,100560.06
2022-11-06T21:18:35.229Z,100571.75
2022-11-06T21:21:07.342Z,100552.47
2022-11-06T21:23:35.401Z,100570.66
2022-11-06T21:26:07.408Z,100577.94
2022-11-06T21:28:36.590Z,100568.06
2022-11-06T21:31:04.108Z,100556.84
2022-11-06T21:33:31.060Z,100571.00
2022-11-06T21:36:08.788Z,100559.66
2022-11-06T21:38:35.860Z,100566.34
2022-11-06T21:41:07.689Z,100550.75
2022-11-06T21:43:35.457Z,100572.75
2022-11-06T21:46:08.122Z,100544.84
2022-11-06T21:48:51.962Z,100541.41
2022-11-06T21:51:22.425Z,100565.66
2022-11-06T21:53:50.268Z,100536.22
2022-11-06T21:56:22.135Z,100548.91
2022-11-06T21:58:53.363Z,100562.78
2022-11-06T22:01:21.099Z,100555.59
2022-11-06T22:03:48.217Z,100550.19
2022-11-06T22:06:18.789Z,100560.00
2022-11-06T22:08:47.225Z,100537.22
2022-11-06T22:11:21.476Z,100537.06
2022-11-06T22:13:50.773Z,100565.22
2022-11-06T22:16:29.489Z,100552.09
2022-11-06T22:18:57.841Z,100559.78
2022-11-06T22:21:27.563Z,100545.38
2022-11-06T22:23:55.128Z,100531.31
2022-11-06T22:26:28.451Z,100527.53
2022-11-06T22:28:57.835Z,100528.38
2022-11-06T22:31:25.688Z,100551.44
2022-11-06T22:33:54.078Z,100547.53
2022-11-06T22:36:22.585Z,100540.88
2022-11-06T22:38:50.396Z,100548.16
2022-11-06T22:41:20.545Z,100520.72
2022-11-06T22:43:47.463Z,100531.69
2022-11-06T22:46:20.286Z,100550.00
2022-11-06T22:48:48.312Z,100528.78
2022-11-06T22:51:21.043Z,100550.75
2022-11-06T22:53:48.577Z,100547.53
2022-11-06T22:56:15.396Z,100557.41
2022-11-06T22:58:43.331Z,100547.00
2022-11-06T23:01:11.329Z,100546.59
2022-11-06T23:03:38.815Z,100557.50
2022-11-06T23:06:09.078Z,100563.56
2022-11-06T23:08:39.741Z,100541.53
2022-11-06T23:11:12.018Z,100557.59
2022-11-06T23:13:40.198Z,100553.59
2022-11-06T23:16:13.850Z,100566.06
2022-11-06T23:18:41.132Z,100565.91
2022-11-06T23:21:16.213Z,100542.84
2022-11-06T23:23:44.940Z,100535.06
2022-11-06T23:26:17.892Z,100560.22
2022-11-06T23:28:45.678Z,100545.09
2022-11-06T23:31:14.477Z,100529.16
2022-11-06T23:33:42.825Z,100537.38
2022-11-06T23:36:11.990Z,100560.59
2022-11-06T23:38:39.086Z,100528.41
2022-11-06T23:41:14.003Z,100537.81
2022-11-06T23:43:40.934Z,100569.69
2022-11-06T23:46:07.766Z,100520.78
2022-11-06T23:48:34.765Z,100529.53
2022-11-06T23:51:01.584Z,100543.72
2022-11-06T23:53:28.450Z,100553.41
2022-11-06T23:55:55.318Z,100549.03
2022-11-06T23:58:22.202Z,100544.41
